createdAt,value
2023-01-19T00:00:55.817Z,8.25
2023-01-19T00:03:22.805Z,8.68
2023-01-19T00:05:49.665Z,8.90
2023-01-19T00:08:17.268Z,8.75
2023-01-19T00:10:45.961Z,8.93
2023-01-19T00:13:13.142Z,8.98
2023-01-19T00:15:39.959Z,8.48
2023-01-19T00:18:07.634Z,8.60
2023-01-19T00:20:35.954Z,7.85
2023-01-19T00:23:04.788Z,9.63
2023-01-19T00:25:31.730Z,8.63
2023-01-19T00:28:00.667Z,8.43
2023-01-19T00:30:28.464Z,8.40
2023-01-19T00:32:55.504Z,8.60
2023-01-19T00:35:22.351Z,8.27
2023-01-19T00:37:49.341Z,8.13
2023-01-19T00:40:16.509Z,8.38
2023-01-19T00:42:48.303Z,8.05
2023-01-19T00:45:18.724Z,8.32
2023-01-19T00:47:46.766Z,8.70
2023-01-19T00:50:16.878Z,7.97
2023-01-19T00:52:44.948Z,8.15
2023-01-19T00:55:14.485Z,8.02
2023-01-19T00:57:41.945Z,7.88
2023-01-19T01:00:15.448Z,8.32
2023-01-19T01:02:43.867Z,8.75
2023-01-19T01:05:11.677Z,8.82
2023-01-19T01:07:42.869Z,8.07
2023-01-19T01:10:17.791Z,9.77
2023-01-19T01:12:55.511Z,8.35
2023-01-19T01:15:52.485Z,8.82
2023-01-19T01:18:20.191Z,9.15
2023-01-19T01:20:46.965Z,8.07
2023-01-19T01:23:13.959Z,8.98
2023-01-19T01:25:41.198Z,9.13
2023-01-19T01:28:08.893Z,9.07
2023-01-19T01:30:40.064Z,8.88
2023-01-19T01:33:08.704Z,8.45
2023-01-19T01:35:35.470Z,8.77
2023-01-19T01:38:02.269Z,9.43
2023-01-19T01:40:29.353Z,9.27
2023-01-19T01:42:56.108Z,9.73
2023-01-19T01:45:37.492Z,8.50
2023-01-19T01:48:14.122Z,9.98
2023-01-19T01:51:05.669Z,8.95
2023-01-19T01:53:34.316Z,9.10
2023-01-19T01:56:03.505Z,7.97
2023-01-19T01:58:32.562Z,8.48
2023-01-19T02:01:18.098Z,8.98
2023-01-19T02:03:45.081Z,8.65
2023-01-19T02:06:12.491Z,8.55
2023-01-19T02:09:11.367Z,8.55
2023-01-19T02:11:57.318Z,8.00
2023-01-19T02:14:24.247Z,8.30
2023-01-19T02:16:51.108Z,8.27
2023-01-19T02:19:23.684Z,7.78
2023-01-19T02:22:18.359Z,8.43
2023-01-19T02:24:45.674Z,8.02
2023-01-19T02:27:12.569Z,7.60
2023-01-19T02:29:39.786Z,7.45
2023-01-19T02:32:07.400Z,8.00
2023-01-19T02:34:34.998Z,8.07
2023-01-19T02:37:07.507Z,7.60
2023-01-19T02:39:52.713Z,7.85
2023-01-19T02:42:33.319Z,7.47
2023-01-19T02:45:00.319Z,8.07
2023-01-19T02:47:27.080Z,7.90
2023-01-19T02:49:58.432Z,8.65
2023-01-19T02:52:26.009Z,8.40
2023-01-19T02:55:05.112Z,6.82
2023-01-19T02:57:44.542Z,8.27
2023-01-19T03:00:20.482Z,7.82
2023-01-19T03:03:06.030Z,8.10
2023-01-19T03:05:57.787Z,7.45
2023-01-19T03:08:44.385Z,7.80
2023-01-19T03:11:13.095Z,7.45
2023-01-19T03:13:51.717Z,8.30
2023-01-19T03:16:23.942Z,8.02
2023-01-19T03:18:57.071Z,7.60
2023-01-19T03:21:27.103Z,8.25
2023-01-19T03:23:57.051Z,7.95
2023-01-19T03:26:29.204Z,7.70
2023-01-19T03:28:56.974Z,7.70
2023-01-19T03:31:26.649Z,8.10
2023-01-19T03:33:59.925Z,7.60
2023-01-19T03:36:36.286Z,7.45
2023-01-19T03:39:05.223Z,7.22
2023-01-19T03:41:33.135Z,7.78
2023-01-19T03:44:00.321Z,7.72
2023-01-19T03:46:27.475Z,8.05
2023-01-19T03:48:55.487Z,7.28
2023-01-19T03:51:22.840Z,7.80
2023-01-19T03:53:50.183Z,7.53
2023-01-19T03:56:23.252Z,7.82
2023-01-19T03:58:51.134Z,6.90
2023-01-19T04:01:20.902Z,6.93
2023-01-19T04:03:47.808Z,7.10
2023-01-19T04:06:14.964Z,7.15
2023-01-19T04:08:41.772Z,8.23
2023-01-19T04:11:08.704Z,8.07
2023-01-19T04:13:35.949Z,7.95
2023-01-19T04:16:04.222Z,8.02
2023-01-19T04:18:33.810Z,7.85
2023-01-19T04:21:06.743Z,7.70
2023-01-19T04:23:34.167Z,8.23
2023-01-19T04:26:06.870Z,8.43
2023-01-19T04:28:35.278Z,8.35
2023-01-19T04:31:02.069Z,8.77
2023-01-19T04:33:29.023Z,8.27
2023-01-19T04:35:56.168Z,8.82
2023-01-19T04:38:26.086Z,8.27
2023-01-19T04:40:53.788Z,8.05
2023-01-19T04:43:22.145Z,7.65
2023-01-19T04:45:49.463Z,8.90
2023-01-19T04:48:16.693Z,7.65
2023-01-19T04:50:43.474Z,8.40
2023-01-19T04:53:10.349Z,7.85
2023-01-19T04:55:38.256Z,8.48
2023-01-19T04:58:05.507Z,8.45
2023-01-19T05:00:32.545Z,8.13
2023-01-19T05:03:00.087Z,8.70
2023-01-19T05:05:27.669Z,8.73
2023-01-19T05:07:54.787Z,9.77
2023-01-19T05:10:25.215Z,8.50
2023-01-19T05:12:52.710Z,9.43
2023-01-19T05:15:19.551Z,8.73
2023-01-19T05:17:46.432Z,9.32
2023-01-19T05:20:16.273Z,8.48
2023-01-19T05:22:48.459Z,9.98
2023-01-19T05:25:15.496Z,9.60
2023-01-19T05:27:42.545Z,10.45
2023-01-19T05:30:11.855Z,9.60
2023-01-19T05:32:38.547Z,9.43
2023-01-19T05:35:06.034Z,9.98
2023-01-19T05:37:33.083Z,9.40
2023-01-19T05:40:00.020Z,9.45
2023-01-19T05:42:26.795Z,9.48
2023-01-19T05:44:53.725Z,10.05
2023-01-19T05:47:20.721Z,11.07
2023-01-19T05:49:47.619Z,10.73
2023-01-19T05:52:15.137Z,11.43
2023-01-19T05:54:42.199Z,10.23
2023-01-19T05:57:09.587Z,10.80
2023-01-19T05:59:36.326Z,10.75
2023-01-19T06:02:03.524Z,11.25
2023-01-19T06:04:30.382Z,10.27
2023-01-19T06:06:57.316Z,11.15
2023-01-19T06:09:24.178Z,10.70
2023-01-19T06:11:51.103Z,11.80
2023-01-19T06:14:17.808Z,11.77
2023-01-19T06:16:44.738Z,11.48
2023-01-19T06:19:11.760Z,10.05
2023-01-19T06:21:38.744Z,11.20
2023-01-19T06:24:06.044Z,11.75
2023-01-19T06:26:32.763Z,12.13
2023-01-19T06:28:59.589Z,11.07
2023-01-19T06:31:26.645Z,10.75
2023-01-19T06:33:53.630Z,10.73
2023-01-19T06:36:20.388Z,10.77
2023-01-19T06:38:47.147Z,11.35
2023-01-19T06:41:14.189Z,11.40
2023-01-19T06:43:41.890Z,11.90
2023-01-19T06:46:09.115Z,11.15
2023-01-19T06:48:36.131Z,10.98
2023-01-19T06:51:02.905Z,11.38
2023-01-19T06:53:30.414Z,10.30
2023-01-19T06:56:04.524Z,11.02
2023-01-19T06:58:32.074Z,10.40
2023-01-19T07:01:06.368Z,9.88
2023-01-19T07:03:34.210Z,11.50
2023-01-19T07:06:06.579Z,10.52
2023-01-19T07:08:35.312Z,10.32
2023-01-19T07:11:23.118Z,10.75
2023-01-19T07:13:55.829Z,10.88
2023-01-19T07:16:23.080Z,9.75
2023-01-19T07:18:50.293Z,11.10
2023-01-19T07:21:17.576Z,11.00
2023-01-19T07:23:44.336Z,10.30
2023-01-19T07:26:11.854Z,10.93
2023-01-19T07:28:38.780Z,10.65
2023-01-19T07:31:06.335Z,10.70
2023-01-19T07:33:33.469Z,11.13
2023-01-19T07:36:00.239Z,11.30
2023-01-19T07:38:27.028Z,11.63
2023-01-19T07:41:02.212Z,11.45
2023-01-19T07:43:29.678Z,10.63
2023-01-19T07:45:57.925Z,10.70
2023-01-19T07:48:25.354Z,11.50
2023-01-19T07:50:52.053Z,11.25
2023-01-19T07:53:19.191Z,11.35
2023-01-19T07:55:53.996Z,10.77
2023-01-19T07:58:23.091Z,11.18
2023-01-19T08:00:50.921Z,11.05
2023-01-19T08:03:18.769Z,11.30
2023-01-19T08:05:45.697Z,11.00
2023-01-19T08:08:12.789Z,10.38
2023-01-19T08:10:39.710Z,10.98
2023-01-19T08:13:06.733Z,11.57
2023-01-19T08:15:33.526Z,11.18
2023-01-19T08:18:02.405Z,11.00
2023-01-19T08:20:30.065Z,11.23
2023-01-19T08:23:00.577Z,10.68
2023-01-19T08:25:36.311Z,11.70
2023-01-19T08:28:05.011Z,11.10
2023-01-19T08:30:32.863Z,11.73
2023-01-19T08:33:08.346Z,11.23
2023-01-19T08:35:49.135Z,11.02
2023-01-19T08:38:17.484Z,10.30
2023-01-19T08:40:44.943Z,10.30
2023-01-19T08:43:14.219Z,10.63
2023-01-19T08:45:49.972Z,10.77
2023-01-19T08:48:20.388Z,10.30
2023-01-19T08:50:47.849Z,10.52
2023-01-19T08:53:15.141Z,9.68
2023-01-19T08:55:42.510Z,9.45
2023-01-19T08:58:09.939Z,10.82
2023-01-19T09:00:38.965Z,9.98
2023-01-19T09:03:07.964Z,10.43
2023-01-19T09:05:37.462Z,9.60
2023-01-19T09:08:06.447Z,10.55
2023-01-19T09:10:36.109Z,10.27
2023-01-19T09:13:05.237Z,9.75
2023-01-19T09:15:38.016Z,10.13
2023-01-19T09:18:07.338Z,9.40
2023-01-19T09:20:36.313Z,10.07
2023-01-19T09:23:03.243Z,10.10
2023-01-19T09:25:38.601Z,9.43
2023-01-19T09:28:09.959Z,10.00
2023-01-19T09:30:40.181Z,10.80
2023-01-19T09:33:11.761Z,10.45
2023-01-19T09:35:39.653Z,11.25
2023-01-19T09:38:09.129Z,10.45
2023-01-19T09:40:50.420Z,10.40
2023-01-19T09:43:40.686Z,10.75
2023-01-19T09:46:22.745Z,10.32
2023-01-19T09:48:55.225Z,10.88
2023-01-19T09:51:26.483Z,10.90
2023-01-19T09:54:07.387Z,11.35
2023-01-19T09:56:34.300Z,10.30
2023-01-19T09:59:01.584Z,10.43
2023-01-19T10:01:40.132Z,9.85
2023-01-19T10:04:18.980Z,11.15
2023-01-19T10:06:48.540Z,11.20
2023-01-19T10:09:42.034Z,10.30
2023-01-19T10:12:19.061Z,10.90
2023-01-19T10:15:08.899Z,10.07
2023-01-19T10:18:06.742Z,9.80
2023-01-19T10:20:38.187Z,9.05
2023-01-19T10:23:19.372Z,9.98
2023-01-19T10:25:46.813Z,10.88
2023-01-19T10:28:25.440Z,10.25
2023-01-19T10:30:54.761Z,8.43
2023-01-19T10:33:21.854Z,9.27
2023-01-19T10:35:48.995Z,9.25
2023-01-19T10:38:20.011Z,8.80
2023-01-19T10:40:54.943Z,7.55
2023-01-19T10:43:34.019Z,8.57
2023-01-19T10:46:49.520Z,9.73
2023-01-19T10:49:39.205Z,8.57
2023-01-19T10:52:08.467Z,8.82
2023-01-19T10:54:45.571Z,8.23
2023-01-19T10:57:22.706Z,8.05
2023-01-19T11:00:01.687Z,8.77
2023-01-19T11:02:30.700Z,8.93
2023-01-19T11:05:01.648Z,8.65
2023-01-19T11:07:33.794Z,8.38
2023-01-19T11:10:28.756Z,9.02
2023-01-19T11:12:59.281Z,8.45
2023-01-19T11:15:36.639Z,9.32
2023-01-19T11:18:08.487Z,9.15
2023-01-19T11:20:49.440Z,8.85
2023-01-19T11:23:24.980Z,9.52
2023-01-19T11:25:52.675Z,9.63
2023-01-19T11:28:28.006Z,9.27
2023-01-19T11:31:16.683Z,9.35
2023-01-19T11:33:51.166Z,8.57
2023-01-19T11:36:21.188Z,9.00
2023-01-19T11:38:53.182Z,9.13
2023-01-19T11:41:35.631Z,9.80
2023-01-19T11:44:20.516Z,10.45
2023-01-19T11:46:51.328Z,9.55
2023-01-19T11:49:28.013Z,10.05
2023-01-19T11:52:12.416Z,9.20
2023-01-19T11:55:07.545Z,9.77
2023-01-19T11:57:34.365Z,9.55
2023-01-19T12:00:05.415Z,9.65
2023-01-19T12:02:43.114Z,10.35
2023-01-19T12:05:15.201Z,8.85
2023-01-19T12:07:43.147Z,9.20
2023-01-19T12:10:41.652Z,10.00
2023-01-19T12:13:20.186Z,9.75
2023-01-19T12:15:48.225Z,10.43
2023-01-19T12:18:45.898Z,10.40
2023-01-19T12:21:13.007Z,11.07
2023-01-19T12:23:42.880Z,10.70
2023-01-19T12:26:31.402Z,9.93
2023-01-19T12:29:14.344Z,11.05
2023-01-19T12:31:43.090Z,11.15
2023-01-19T12:34:26.031Z,11.32
2023-01-19T12:36:55.654Z,11.07
2023-01-19T12:39:25.763Z,11.15
2023-01-19T12:42:17.028Z,11.85
2023-01-19T12:44:45.843Z,11.30
2023-01-19T12:47:18.330Z,11.27
2023-01-19T12:49:46.668Z,11.00
2023-01-19T12:53:02.909Z,10.65
2023-01-19T12:55:31.193Z,10.48
2023-01-19T12:57:58.127Z,10.77
2023-01-19T13:00:24.969Z,10.80
2023-01-19T13:03:19.676Z,11.03
2023-01-19T13:05:56.996Z,9.57
2023-01-19T13:08:26.092Z,9.70
2023-01-19T13:11:12.582Z,10.17
2023-01-19T13:13:48.119Z,9.90
2023-01-19T13:16:30.035Z,10.23
2023-01-19T13:19:08.849Z,9.33
2023-01-19T13:21:51.429Z,9.30
2023-01-19T13:24:22.586Z,9.17
2023-01-19T13:26:49.537Z,9.97
2023-01-19T13:29:31.307Z,9.37
2023-01-19T13:32:03.599Z,9.80
2023-01-19T13:34:35.642Z,8.77
2023-01-19T13:37:03.047Z,8.33
2023-01-19T13:39:35.209Z,8.67
2023-01-19T13:42:09.803Z,7.73
2023-01-19T13:44:41.676Z,8.00
2023-01-19T13:47:14.555Z,8.67
2023-01-19T13:49:46.261Z,8.10
2023-01-19T13:52:25.095Z,7.57
2023-01-19T13:55:02.842Z,7.60
2023-01-19T13:57:40.595Z,6.73
2023-01-19T14:00:16.759Z,6.70
2023-01-19T14:02:54.847Z,5.73
2023-01-19T14:05:26.595Z,6.50
2023-01-19T14:08:15.423Z,6.83
2023-01-19T14:10:55.187Z,7.87
2023-01-19T14:13:32.621Z,6.73
2023-01-19T14:16:04.980Z,7.87
2023-01-19T14:18:36.052Z,7.00
2023-01-19T14:21:09.280Z,6.77
2023-01-19T14:23:47.591Z,6.97
2023-01-19T14:26:41.923Z,7.80
2023-01-19T14:29:28.975Z,7.47
2023-01-19T14:32:10.245Z,7.23
2023-01-19T14:34:38.832Z,7.20
2023-01-19T14:37:29.060Z,8.63
2023-01-19T14:39:59.651Z,8.50
2023-01-19T14:42:36.433Z,8.03
2023-01-19T14:45:08.966Z,7.97
2023-01-19T14:47:38.976Z,8.40
2023-01-19T14:50:23.025Z,8.50
2023-01-19T14:52:56.081Z,8.17
2023-01-19T14:55:26.899Z,9.17
2023-01-19T14:57:55.017Z,8.43
2023-01-19T15:00:22.279Z,7.93
2023-01-19T15:02:50.507Z,8.63
2023-01-19T15:05:17.384Z,9.47
2023-01-19T15:07:46.049Z,8.10
2023-01-19T15:10:17.888Z,9.63
2023-01-19T15:12:44.961Z,7.37
2023-01-19T15:15:22.416Z,9.23
2023-01-19T15:17:50.024Z,7.77
2023-01-19T15:20:19.446Z,8.97
2023-01-19T15:22:46.657Z,7.50
2023-01-19T15:25:18.307Z,6.93
2023-01-19T15:27:46.105Z,6.80
2023-01-19T15:30:21.719Z,7.50
2023-01-19T15:32:48.937Z,7.70
2023-01-19T15:35:20.900Z,7.23
2023-01-19T15:37:49.193Z,6.83
2023-01-19T15:40:17.911Z,6.73
2023-01-19T15:42:45.344Z,7.50
2023-01-19T15:45:31.070Z,7.70
2023-01-19T15:47:58.320Z,7.53
2023-01-19T15:50:25.998Z,8.00
2023-01-19T15:52:53.176Z,9.33
2023-01-19T15:55:20.185Z,9.53
2023-01-19T15:57:48.248Z,9.10
2023-01-19T16:00:15.792Z,10.07
2023-01-19T16:02:43.013Z,9.63
2023-01-19T16:05:10.407Z,10.10
2023-01-19T16:07:37.650Z,9.73
2023-01-19T16:10:09.568Z,10.77
2023-01-19T16:12:37.069Z,10.10
2023-01-19T16:15:04.388Z,10.43
2023-01-19T16:17:31.540Z,10.15
2023-01-19T16:19:58.756Z,10.47
2023-01-19T16:22:25.753Z,10.53
2023-01-19T16:24:53.343Z,10.47
2023-01-19T16:27:20.466Z,9.17
2023-01-19T16:29:48.220Z,10.37
2023-01-19T16:32:17.100Z,9.90
2023-01-19T16:34:43.984Z,9.98
2023-01-19T16:37:13.912Z,9.75
2023-01-19T16:39:40.858Z,10.88
2023-01-19T16:42:07.784Z,10.10
2023-01-19T16:44:34.611Z,10.57
2023-01-19T16:47:01.454Z,11.00
2023-01-19T16:49:28.659Z,10.52
2023-01-19T16:51:58.651Z,11.05
2023-01-19T16:54:26.650Z,11.27
2023-01-19T16:56:54.801Z,10.90
2023-01-19T16:59:22.639Z,10.88
2023-01-19T17:01:51.089Z,10.85
2023-01-19T17:04:19.836Z,12.13
2023-01-19T17:06:46.935Z,11.50
2023-01-19T17:09:14.178Z,11.30
2023-01-19T17:11:41.645Z,11.48
2023-01-19T17:14:17.318Z,11.38
2023-01-19T17:16:44.577Z,11.70
2023-01-19T17:19:15.216Z,12.10
2023-01-19T17:21:46.577Z,12.10
2023-01-19T17:24:13.403Z,12.27
2023-01-19T17:26:40.870Z,11.87
2023-01-19T17:29:09.220Z,11.25
2023-01-19T17:31:36.912Z,11.45
2023-01-19T17:34:04.293Z,11.87
2023-01-19T17:36:32.197Z,12.83
2023-01-19T17:39:00.915Z,12.83
2023-01-19T17:41:34.330Z,12.53
2023-01-19T17:44:02.188Z,12.53
2023-01-19T17:46:29.928Z,11.77
2023-01-19T17:48:59.045Z,12.47
2023-01-19T17:51:39.292Z,12.27
2023-01-19T17:56:57.719Z,13.20
2023-01-19T17:59:24.776Z,12.37
2023-01-19T18:01:51.977Z,12.35
2023-01-19T18:04:19.349Z,12.93
2023-01-19T18:06:47.302Z,13.27
2023-01-19T18:09:14.444Z,12.35
2023-01-19T18:11:42.957Z,12.15
2023-01-19T18:14:09.981Z,11.25
2023-01-19T18:16:37.599Z,12.73
2023-01-19T18:19:06.758Z,12.52
2023-01-19T18:21:33.870Z,14.03
2023-01-19T18:24:02.962Z,12.98
2023-01-19T18:26:31.132Z,12.07
2023-01-19T18:28:58.466Z,11.85
2023-01-19T18:31:26.553Z,10.82
2023-01-19T18:33:54.040Z,10.85
2023-01-19T18:36:21.004Z,11.65
2023-01-19T18:38:47.904Z,14.02
2023-01-19T18:41:16.924Z,12.20
2023-01-19T18:43:44.294Z,12.25
2023-01-19T18:46:11.634Z,13.55
2023-01-19T18:48:39.397Z,11.93
2023-01-19T18:51:11.920Z,12.73
2023-01-19T18:53:39.085Z,12.98
2023-01-19T18:56:06.623Z,14.30
2023-01-19T18:58:36.398Z,13.55
2023-01-19T19:01:04.964Z,13.40
2023-01-19T19:03:32.045Z,12.57
2023-01-19T19:06:03.519Z,10.90
2023-01-19T19:08:30.687Z,10.80
2023-01-19T19:10:57.569Z,12.25
2023-01-19T19:13:24.445Z,13.02
2023-01-19T19:15:52.763Z,11.82
2023-01-19T19:18:19.915Z,12.20
2023-01-19T19:20:46.849Z,12.45
2023-01-19T19:23:13.738Z,12.98
2023-01-19T19:25:40.570Z,13.60
2023-01-19T19:28:10.595Z,13.25
2023-01-19T19:30:39.031Z,12.80
2023-01-19T19:33:06.117Z,12.65
2023-01-19T19:35:32.989Z,12.50
2023-01-19T19:37:59.974Z,13.13
2023-01-19T19:40:29.386Z,12.48
2023-01-19T19:42:58.707Z,13.20
2023-01-19T19:45:25.798Z,13.95
2023-01-19T19:47:52.794Z,13.23
2023-01-19T19:50:19.981Z,13.25
2023-01-19T19:52:47.158Z,12.80
2023-01-19T19:55:14.274Z,13.07
2023-01-19T19:57:41.169Z,12.52
2023-01-19T20:00:09.131Z,12.35
2023-01-19T20:02:38.808Z,12.60
2023-01-19T20:05:06.060Z,13.27
2023-01-19T20:07:33.029Z,13.13
2023-01-19T20:10:00.317Z,13.70
2023-01-19T20:12:28.078Z,14.32
2023-01-19T20:14:55.799Z,13.77
2023-01-19T20:17:23.345Z,13.60
2023-01-19T20:19:52.864Z,15.90
2023-01-19T20:22:19.766Z,13.35
2023-01-19T20:24:46.927Z,15.82
2023-01-19T20:27:13.821Z,15.57
2023-01-19T20:29:40.810Z,15.75
2023-01-19T20:32:08.189Z,15.40
2023-01-19T20:34:35.848Z,14.88
2023-01-19T20:37:04.045Z,14.68
2023-01-19T20:39:33.499Z,14.40
2023-01-19T20:42:01.193Z,13.95
2023-01-19T20:44:28.388Z,14.65
2023-01-19T20:46:55.781Z,14.63
2023-01-19T20:49:22.971Z,13.93
2023-01-19T20:51:51.270Z,13.40
2023-01-19T20:54:20.009Z,14.32
2023-01-19T20:56:46.816Z,13.43
2023-01-19T20:59:13.907Z,14.05
2023-01-19T21:01:41.380Z,12.07
2023-01-19T21:04:08.472Z,12.23
2023-01-19T21:06:36.007Z,14.02
2023-01-19T21:09:03.293Z,13.18
2023-01-19T21:11:30.696Z,12.93
2023-01-19T21:13:57.815Z,13.07
2023-01-19T21:16:31.475Z,12.52
2023-01-19T21:18:58.485Z,12.60
2023-01-19T21:21:30.921Z,13.18
2023-01-19T21:24:01.754Z,12.45
2023-01-19T21:26:33.511Z,14.68
2023-01-19T21:29:02.171Z,12.35
2023-01-19T21:31:29.143Z,12.07
2023-01-19T21:33:57.166Z,12.73
2023-01-19T21:36:24.707Z,12.32
2023-01-19T21:38:52.564Z,11.80
2023-01-19T21:41:20.343Z,12.40
2023-01-19T21:43:47.469Z,11.23
2023-01-19T21:46:18.231Z,11.80
2023-01-19T21:48:45.997Z,11.82
2023-01-19T21:51:13.868Z,12.05
2023-01-19T21:53:41.003Z,12.35
2023-01-19T21:56:09.435Z,12.95
2023-01-19T21:58:36.293Z,12.90
2023-01-19T22:01:06.134Z,12.43
2023-01-19T22:03:33.243Z,12.27
2023-01-19T22:06:05.223Z,14.38
2023-01-19T22:08:33.149Z,12.27
2023-01-19T22:18:40.865Z,13.00
2023-01-19T22:21:14.243Z,11.98
2023-01-19T22:23:41.619Z,14.30
2023-01-19T22:26:09.303Z,13.18
2023-01-19T22:28:36.587Z,14.77
2023-01-19T22:31:11.995Z,13.73
2023-01-19T22:33:38.944Z,13.52
2023-01-19T22:36:16.275Z,13.07
2023-01-19T22:38:43.841Z,14.30
2023-01-19T22:41:37.891Z,13.98
2023-01-19T22:44:09.995Z,13.68
2023-01-19T22:46:37.588Z,13.52
2023-01-19T22:49:07.505Z,13.13
2023-01-19T22:51:35.022Z,14.43
2023-01-19T22:54:01.890Z,14.32
2023-01-19T22:56:31.223Z,14.27
2023-01-19T22:58:59.104Z,13.48
2023-01-19T23:01:33.248Z,14.00
2023-01-19T23:04:01.416Z,14.32
2023-01-19T23:06:30.273Z,13.75
2023-01-19T23:08:59.812Z,13.25
2023-01-19T23:11:29.616Z,13.65
2023-01-19T23:13:56.571Z,14.10
2023-01-19T23:16:23.469Z,14.02
2023-01-19T23:18:54.200Z,14.40
2023-01-19T23:21:22.938Z,13.90
2023-01-19T23:23:53.619Z,13.82
2023-01-19T23:26:20.854Z,14.18
2023-01-19T23:28:48.093Z,13.45
2023-01-19T23:31:22.304Z,13.50
2023-01-19T23:33:54.663Z,13.38
2023-01-19T23:36:23.004Z,14.30
2023-01-19T23:38:52.402Z,13.88
2023-01-19T23:41:20.290Z,14.68
2023-01-19T23:43:47.194Z,13.50
2023-01-19T23:46:14.813Z,12.82
2023-01-19T23:48:41.480Z,14.07
2023-01-19T23:51:15.832Z,14.07
2023-01-19T23:53:43.180Z,13.25
2023-01-19T23:56:15.854Z,12.88
2023-01-19T23:58:42.852Z,14.02
